Header for Extended Forecast Station List Page

Search by: ID | Name | Date | Parm | Value | Avg | % Avg
Sort by: ID | Name | Date | Parm | Value | Avg | % Avg

Enter search or view all records.

Click on id for station plot
#IDNameDateParmValueAvg% Avg
0MAGI1BIG WOOD-MAGIC DAM02-22-2021INFLOW (KAF)6921732
1LWRI1LITTLE WOOD-LITTLE WOOD DAM02-22-2021INFLOW (KAF)336948
2HALI1BIG WOOD-AT HAILEY02-22-2021DISCHARGE (KAF)8717250
3MACI1BIG LOST-MACKAY RESERVOIR NEAR MACKAY02-22-2021INFLOW (KAF)5810954
4HWRI1BIG LOST-AT HOWELL RANCH NEAR CHILLY02-22-2021DISCHARGE (KAF)6310759
5HOTI1BRUNEAU-NEAR HOT SPRINGS02-22-2021DISCHARGE (KAF)10317060
6PIHI1PORTNEUF-AT POCATELLO02-22-2021DISCHARGE (KAF)6110061
7SWAI1SNAKE-BELOW SWAN FALLS02-22-2021DISCHARGE (KAF)1695268963
8WEII1SNAKE-AT WEISER02-22-2021DISCHARGE (KAF)3683539068
9BERO3MALHEUR-AGENCY VALLEY DAM02-22-2021INFLOW (KAF)365269
10ANAW1SNAKE-NEAR ANATONE02-22-2021DISCHARGE (KAF)90201271671
11BRNI1SNAKE-BROWNLEE DAM02-22-2021INFLOW (KAF)4239582973
12ARAI1SF BOISE-ANDERSON RANCH DAM02-22-2021INFLOW (KAF)34245375
13WHBI1SALMON-AT WHITEBIRD02-22-2021DISCHARGE (KAF)3527461776
14EMMI1PAYETTE-NEAR EMMETT02-22-2021DISCHARGE (KAF)879114577
15OWYO3OWYHEE-OWYHEE DAM02-22-2021INFLOW (KAF)28236178
16DEDI1DEADWOOD-NEAR LOWMAN02-22-2021INFLOW (KAF)9111182
17LGDW1SNAKE-LOWER GRANITE DAM02-22-2021INFLOW (KAF)157911927282
18LGSW1SNAKE-LITTLE GOOSE DAM02-22-2021INFLOW (KAF)157911930482
19LMNW1SNAKE-LOWER MONUMENTAL DAM02-22-2021INFLOW (KAF)159751950982
20IHDW1SNAKE-ICE HARBOR DAM02-22-2021INFLOW (KAF)159751938182
21REXI1HENRYS FORK-AT REXBURG02-22-2021DISCHARGE (KAF)59471383
22JLKW4SNAKE-JACKSON LAKE AT DAM02-22-2021INFLOW (KAF)46956383
23FCFM8NF FLATHEAD-NEAR COLUMBIA FALLS02-22-2021DISCHARGE (KAF)1053121986
24NOXM8CLARK FORK-NOXON RAPIDS DAM02-22-2021INFLOW (KAF)6567766686
25ANTI1HENRYS FORK-AT ST. ANTHONY02-22-2021DISCHARGE (KAF)52460986
26ALPW4SNAKE-NEAR ALPINE02-22-2021DISCHARGE (KAF)1162134886
27PLDI1SF SNAKE-PALISADES DAM02-22-2021INFLOW (KAF)1778206286
28JKSW4SNAKE-NEAR JACKSON02-22-2021DISCHARGE (KAF)890102787
29MCDW1COLUMBIA-MCNARY DAM02-22-2021INFLOW (KAF)481385525887
30JDAO3COLUMBIA-JOHN DAY DAM02-22-2021INFLOW (KAF)505805783987
31LYDM8KOOTENAI-LIBBY DAM02-22-2021INFLOW (KAF)3453388689
32LLKW1SPOKANE-AT LONGLAKE02-22-2021INFLOW (KAF)3023339989
33GCDW1COLUMBIA-GRAND COULEE DAM02-22-2021INFLOW (KAF)282493165089
34AFRI1SNAKE-AMERICAN FALLS RESERVOIR02-22-2021INFLOW (KAF)2088234789
35CABI1CLARK FORK-CABINET GORGE DAM02-22-2021INFLOW (KAF)7250804790
36ALFW1PEND OREILLE-ALBENI FALLS DAM02-22-2021INFLOW (KAF)8681968990
37LAUW1KETTLE-AT LAURIER02-22-2021DISCHARGE (KAF)1344149090
38IPDI1HENRYS FORK-ISLAND PARK DAM02-22-2021INFLOW (KAF)16218190
39CHEI1FALL RIVER-NEAR CHESTER02-22-2021DISCHARGE (KAF)26829790
40KERM8FLATHEAD-SELI’Š KSANKA QLISPE’ DAM02-22-2021INFLOW (KAF)3863422791
41RIDI1WILLOW CREEK-RIRIE DAM02-22-2021INFLOW (KAF)404391
42BFTI1SNAKE-NEAR BLACKFOOT02-22-2021DISCHARGE (KAF)1517167091
43WRMO3MALHEUR-WARM SPRINGS DAM02-22-2021INFLOW (KAF)636991
44BONO3COLUMBIA-BONNEVILLE DAM02-22-2021INFLOW (KAF)521515724191
45PRWW1COLUMBIA-PRIEST RAPIDS DAM02-22-2021INFLOW (KAF)309863375292
46SNAI1SNAKE-AT BLACKFOOT02-22-2021DISCHARGE (KAF)1558169692
47CSDI1NF PAYETTE-CASCADE DAM02-22-2021INFLOW (KAF)42646392
48STRM8ST. REGIS-NEAR ST. REGIS02-22-2021DISCHARGE (KAF)22323993
49WANW1COLUMBIA-WANAPUM DAM02-22-2021INFLOW (KAF)309933316593
50MODO3DESCHUTES-AT MOODY NR BIGGS02-22-2021DISCHARGE (KAF)1423153393
51TDAO3COLUMBIA-THE DALLES DAM02-22-2021INFLOW (KAF)509855497293
52CHJW1COLUMBIA-CHIEF JOSEPH DAM02-22-2021INFLOW (KAF)267822824895
53SHYI1SNAKE-NEAR SHELLEY02-22-2021DISCHARGE (KAF)1865196595
54WELW1COLUMBIA-WELLS DAM02-22-2021INFLOW (KAF)289583021496
55TEAI1TETON-NEAR ST. ANTHONY02-22-2021DISCHARGE (KAF)25426396
56SERO3JOHN DAY-AT SERVICE CK02-22-2021DISCHARGE (KAF)86990296
57SRGM8CLARK FORK-AT ST REGIS02-22-2021DISCHARGE (KAF)2896299097
58RRHW1COLUMBIA-ROCKY REACH DAM02-22-2021INFLOW (KAF)297253065897
59PARI1BOISE-NEAR PARMA02-22-2021DISCHARGE (KAF)40942297
60PITW1KLICKITAT-NEAR PITT02-22-2021DISCHARGE (KAF)52053298
61WGCM8MF FLATHEAD-NEAR WEST GLACIER02-22-2021DISCHARGE (KAF)1176119199
62BIGI1BOISE-AT GLENWOOD BRIDGE02-22-2021DISCHARGE (KAF)35636099
63WSRI1WEISER-NEAR WEISER02-22-2021DISCHARGE (KAF)43343899
64UNDW1WHITE SALMON-NEAR UNDERWOOD02-22-2021DISCHARGE (KAF)35335799
65HHWM8SF FLATHEAD-HUNGRY HORSE DAM02-22-2021INFLOW (KAF)15921584100
66CFMM8FLATHEAD-AT COLUMBIA FALLS02-22-2021DISCHARGE (KAF)33523347100
67DLGM8CLARK FORK-AT DEER LODGE02-22-2021DISCHARGE (KAF)8484100
68SIFI1SNAKE-AB EAGLE ROCK NR IDAHO FALLS02-22-2021DISCHARGE (KAF)20031988101
69ABOM8CLARK FORK-ABOVE MISSOULA02-22-2021DISCHARGE (KAF)12281189103
70BELM8CLARK FORK-BELOW MISSOULA02-22-2021DISCHARGE (KAF)22582201103
71COEI1COEUR D ALENE-COEUR D ALENE LAKE02-22-2021INFLOW (KAF)29022829103
72SPDI1CLEARWATER-AT SPALDING02-22-2021DISCHARGE (KAF)67716553103
73BITM8BITTERROOT-NEAR MISSOULA02-22-2021DISCHARGE (KAF)1029987104
74PRTI1PRIEST-NEAR PRIEST RIVER02-22-2021DISCHARGE (KAF)759727104
75MONO3NF JOHN DAY-AT MONUMENT02-22-2021DISCHARGE (KAF)660627105
76BONM8BLACKFOOT-NEAR BONNER02-22-2021DISCHARGE (KAF)696653106
77ORFI1CLEARWATER-AT OROFINO02-22-2021DISCHARGE (KAF)44894214107
78HEII1SNAKE-NEAR HEISE02-22-2021DISCHARGE (KAF)21541999108
79DWRI1NF CLEARWATER-DWORSHAK DAM02-22-2021INFLOW (KAF)28182604108
80TONW1OKANOGAN-NEAR TONASKET02-22-2021DISCHARGE (KAF)13321197111
81KIOW1YAKIMA-AT KIONA02-22-2021DISCHARGE (KAF)11281021111
82PESW1WENATCHEE-AT PESHASTIN02-22-2021DISCHARGE (KAF)12641126112
83SATI1ST MARIES-NEAR SANTA02-22-2021DISCHARGE (KAF)171151113
84CHDW1CHELAN-LAKE CHELAN DAM02-22-2021INFLOW (KAF)852739115
85CLFW1NACHES-NEAR CLIFFDEL02-22-2021DISCHARGE (KAF)375327115
86MYKO3MCKAY CREEK-NEAR PILOT ROCK02-22-2021DISCHARGE (KAF)4035115
87UMTW1YAKIMA-AT UMTANUM02-22-2021DISCHARGE (KAF)753644117
88RILW1TIETON-RIMROCK LAKE NEAR RIMROCK02-22-2021INFLOW (KAF)188161117
89LEOI1KOOTENAI-AT LEONIA02-22-2021DISCHARGE (KAF)46293933118
90HODO3HOOD-NEAR TUCKER BRIDGE02-22-2021DISCHARGE (KAF)319270118
91ARDW1ENTIAT-NEAR ARDENVOIR02-22-2021DISCHARGE (KAF)182147123
92TCHW1WALLA WALLA-NEAR TOUCHET02-22-2021DISCHARGE (KAF)228185123
93BUDW1BUMPING-BUMPING LAKE DAM02-22-2021INFLOW (KAF)12097124
94RCCM8ROCK CREEK-NEAR CLINTON02-22-2021DISCHARGE (KAF)253199127
95CLUW1CLE ELUM-CLE ELUM LAKE02-22-2021INFLOW (KAF)414325127
96PARW1YAKIMA-NEAR PARKER02-22-2021DISCHARGE (KAF)812637127
97KADW1KACHESS-KACHESS DAM02-22-2021INFLOW (KAF)131102129
98PATW1METHOW-NEAR PATEROS02-22-2021DISCHARGE (KAF)878670131
99TRYO3GRANDE RONDE-TROY02-22-2021DISCHARGE (KAF)16511249132
100NACW1NACHES-NEAR NACHES02-22-2021DISCHARGE (KAF)557420133
101EASW1YAKIMA-AT EASTON02-22-2021DISCHARGE (KAF)135100135
102KEDW1YAKIMA-KEECHELUS LAKE02-22-2021INFLOW (KAF)147107137
103TNAW1TEANAWAY-BELOW FORKS02-22-2021DISCHARGE (KAF)203133153
104PDTO3UMATILLA-AT PENDLETON02-22-2021DISCHARGE (KAF)283184154
105GIBO3UMATILLA-NEAR GIBBON02-22-2021DISCHARGE (KAF)13483163
106UMAO3UMATILLA-NEAR UMATILLA02-22-2021DISCHARGE (KAF)253142178
107BULO3BULLY CREEK-BULLY CREEK DAM02-22-2021INFLOW (KAF)168198
108BFEI1KOOTENAI-AT BONNERS FERRY02-22-2021STAGE (FT)MMM
109DRMM8CLARK FORK-NR DRUMMOND02-22-2021DISCHARGE (KAF)235MM
110HOPI1PEND OREILLE-PEND OREILLE LAKE NR HOPE02-22-2021LAKE ELEVATION (FT)MMM
111SPOW1SPOKANE-AT SPOKANE02-22-2021DISCHARGE (KAF)2737MM
112SJMI1ST JOE-AT ST MARIES02-22-2021STAGE (FT)MMM
113CIBW1COLUMBIA-AT INTL BOUNDARY02-22-2021DISCHARGE (KAF)23861MM
114MILI1SNAKE-AT MILNER02-22-2021DISCHARGE (KAF)M631M
115LUCI1BOISE-LUCKY PEAK DAM02-22-2021INFLOW (KAF)1029MM